Time;durP1;ratioP1;P1;durP2;ratioP2;P2;SDS_P1;SDS_P2;PMS_P1;PMS_P2;Temp;Humidity;BMP_temperature;BMP_pressure;BME280_temperature;BME280_humidity;BME280_pressure;Samples;Min_cycle;Max_cycle;Signal;HPM_P1;HPM_P2
2023/04/15 00:01:28;;;;;;;9.50;4.13;;;;;;;;;;5053419;28;20054;-78
2023/04/15 00:03:55;;;;;;;11.38;4.18;;;;;;;;;;5053843;28;20558;-78
2023/04/15 00:06:22;;;;;;;13.48;4.32;;;;;;;;;;5051996;28;20072;-78
2023/04/15 00:08:49;;;;;;;10.32;4.35;;;;;;;;;;5052186;28;20476;-78
2023/04/15 00:11:15;;;;;;;8.88;3.90;;;;;;;;;;5053368;28;20175;-78
2023/04/15 00:13:42;;;;;;;15.82;4.40;;;;;;;;;;5052229;28;20076;-78
2023/04/15 00:16:08;;;;;;;7.05;3.85;;;;;;;;;;5052056;28;20406;-78
2023/04/15 00:18:35;;;;;;;12.73;4.57;;;;;;;;;;5052508;28;20508;-78
2023/04/15 00:21:01;;;;;;;10.27;4.55;;;;;;;;;;5053325;28;20064;-78
2023/04/15 00:23:27;;;;;;;15.32;4.72;;;;;;;;;;5051916;28;20519;-78
2023/04/15 00:25:54;;;;;;;11.13;4.35;;;;;;;;;;5053170;28;20429;-78
2023/04/15 00:28:20;;;;;;;12.63;4.30;;;;;;;;;;5051867;28;20045;-78
2023/04/15 00:30:46;;;;;;;9.65;5.30;;;;;;;;;;5051850;28;20045;-78
2023/04/15 00:33:13;;;;;;;13.30;4.60;;;;;;;;;;5052824;28;20116;-78
2023/04/15 00:35:39;;;;;;;11.18;4.40;;;;;;;;;;5035006;28;20044;-78
2023/04/15 00:38:07;;;;;;;10.57;4.50;;;;;;;;;;5051884;28;20508;-78
2023/04/15 00:40:33;;;;;;;14.13;4.95;;;;;;;;;;5051744;28;20418;-78
2023/04/15 00:42:59;;;;;;;10.38;4.65;;;;;;;;;;5051660;28;20447;-78
2023/04/15 00:45:27;;;;;;;12.82;4.82;;;;;;;;;;5052424;28;20041;-78
2023/04/15 00:47:53;;;;;;;10.75;4.70;;;;;;;;;;5053424;28;20099;-78
2023/04/15 00:50:19;;;;;;;9.45;4.35;;;;;;;;;;5050769;28;20110;-78
2023/04/15 00:52:45;;;;;;;11.48;4.88;;;;;;;;;;5052553;28;20068;-78
2023/04/15 00:55:11;;;;;;;11.75;4.53;;;;;;;;;;5052229;28;20040;-78
2023/04/15 00:57:39;;;;;;;13.40;4.80;;;;;;;;;;5051723;28;20041;-78
2023/04/15 01:00:06;;;;;;;9.93;4.50;;;;;;;;;;5051602;28;20080;-78
2023/04/15 01:02:33;;;;;;;14.23;4.82;;;;;;;;;;5050455;28;20051;-78
2023/04/15 01:04:59;;;;;;;8.70;4.60;;;;;;;;;;5051222;28;20047;-78
2023/04/15 01:07:25;;;;;;;10.32;5.28;;;;;;;;;;5052150;28;20095;-78
2023/04/15 01:09:52;;;;;;;8.75;4.63;;;;;;;;;;5051286;28;20056;-78
2023/04/15 01:12:18;;;;;;;13.40;5.82;;;;;;;;;;5050979;28;20136;-78
2023/04/15 01:14:44;;;;;;;10.52;5.03;;;;;;;;;;5051046;28;20047;-78
2023/04/15 01:17:11;;;;;;;11.50;5.00;;;;;;;;;;5052394;28;20073;-78
2023/04/15 01:19:37;;;;;;;9.02;5.47;;;;;;;;;;5033320;28;20120;-78
2023/04/15 01:22:04;;;;;;;9.35;4.28;;;;;;;;;;5034513;28;20039;-78
2023/04/15 01:24:34;;;;;;;13.68;5.43;;;;;;;;;;5050548;28;20044;-78
2023/04/15 01:27:01;;;;;;;10.57;5.10;;;;;;;;;;5049768;28;20033;-78
2023/04/15 01:29:27;;;;;;;11.93;5.43;;;;;;;;;;5054078;28;20059;-78
2023/04/15 01:31:54;;;;;;;8.43;4.78;;;;;;;;;;5067826;28;20402;-78
2023/04/15 01:34:21;;;;;;;10.95;5.75;;;;;;;;;;5057740;28;20032;-78
2023/04/15 01:36:47;;;;;;;13.15;6.75;;;;;;;;;;5059186;28;20515;-78
2023/04/15 01:39:13;;;;;;;11.15;6.00;;;;;;;;;;5050602;28;20048;-78
2023/04/15 01:41:41;;;;;;;10.05;5.50;;;;;;;;;;5050432;28;20116;-78
2023/04/15 01:44:07;;;;;;;11.75;5.78;;;;;;;;;;5043905;28;20076;-78
2023/04/15 01:46:33;;;;;;;10.55;5.75;;;;;;;;;;5045670;28;20493;-78
2023/04/15 01:48:59;;;;;;;13.68;6.07;;;;;;;;;;5051858;28;20041;-78
2023/04/15 01:51:26;;;;;;;16.48;5.93;;;;;;;;;;5050312;28;20456;-78
2023/04/15 01:53:52;;;;;;;12.10;5.18;;;;;;;;;;5050485;28;20433;-78
2023/04/15 01:56:19;;;;;;;13.10;6.82;;;;;;;;;;5050169;28;20052;-78
2023/04/15 01:58:45;;;;;;;12.35;6.05;;;;;;;;;;5051967;28;20406;-78
2023/04/15 02:01:11;;;;;;;15.95;6.10;;;;;;;;;;5048761;28;20033;-78
2023/04/15 02:03:38;;;;;;;12.70;6.35;;;;;;;;;;5051145;28;20037;-78
2023/04/15 02:06:05;;;;;;;13.57;5.72;;;;;;;;;;5050770;28;20056;-78
2023/04/15 02:08:31;;;;;;;11.70;6.35;;;;;;;;;;5051510;28;20123;-78
2023/04/15 02:10:57;;;;;;;14.45;6.70;;;;;;;;;;5051611;28;20573;-78
2023/04/15 02:13:23;;;;;;;12.05;5.93;;;;;;;;;;5051334;28;20037;-78
2023/04/15 02:15:51;;;;;;;10.75;5.65;;;;;;;;;;5051855;28;20071;-78
2023/04/15 02:18:17;;;;;;;12.02;5.60;;;;;;;;;;5050487;28;20494;-78
2023/04/15 02:20:43;;;;;;;11.88;5.25;;;;;;;;;;5051345;28;20041;-77
2023/04/15 02:23:10;;;;;;;9.80;5.25;;;;;;;;;;5051726;28;20086;-78
2023/04/15 02:25:37;;;;;;;9.27;5.38;;;;;;;;;;5050061;28;20051;-78
2023/04/15 02:28:04;;;;;;;13.10;6.57;;;;;;;;;;5051585;28;20501;-78
2023/04/15 02:30:30;;;;;;;14.73;6.88;;;;;;;;;;5051735;28;20490;-78
2023/04/15 02:32:56;;;;;;;11.98;6.50;;;;;;;;;;5054621;28;20462;-78
2023/04/15 02:35:24;;;;;;;11.98;6.05;;;;;;;;;;5056107;28;20085;-78
2023/04/15 02:37:51;;;;;;;12.07;6.20;;;;;;;;;;5053990;28;20052;-78
2023/04/15 02:40:17;;;;;;;14.88;6.22;;;;;;;;;;5055212;28;20056;-78
2023/04/15 02:42:44;;;;;;;11.68;6.15;;;;;;;;;;5053889;28;20565;-78
2023/04/15 02:45:11;;;;;;;13.15;6.15;;;;;;;;;;5054024;28;20033;-78
2023/04/15 02:47:40;;;;;;;11.35;5.60;;;;;;;;;;5053542;28;20045;-78
2023/04/15 02:50:11;;;;;;;15.05;6.80;;;;;;;;;;5055323;28;20056;-78
2023/04/15 02:52:39;;;;;;;14.80;6.60;;;;;;;;;;5054763;28;20124;-78
2023/04/15 02:55:05;;;;;;;14.02;6.93;;;;;;;;;;5053528;28;20053;-78
2023/04/15 02:57:31;;;;;;;15.48;6.63;;;;;;;;;;5053103;28;20052;-78
2023/04/15 02:59:57;;;;;;;14.13;7.22;;;;;;;;;;5054738;28;20045;-78
2023/04/15 03:02:23;;;;;;;12.95;6.30;;;;;;;;;;5047277;28;20486;-79
2023/04/15 03:04:50;;;;;;;13.07;6.63;;;;;;;;;;5054468;28;20047;-78
2023/04/15 03:07:17;;;;;;;16.92;7.75;;;;;;;;;;5053384;28;20086;-79
2023/04/15 03:09:43;;;;;;;16.05;7.72;;;;;;;;;;5052824;28;20081;-78
2023/04/15 03:12:09;;;;;;;12.82;6.70;;;;;;;;;;5044740;28;20038;-78
2023/04/15 03:14:35;;;;;;;17.10;7.93;;;;;;;;;;5048921;28;20075;-78
2023/04/15 03:17:01;;;;;;;14.40;7.00;;;;;;;;;;5053105;28;20083;-78
2023/04/15 03:19:28;;;;;;;18.08;8.35;;;;;;;;;;5036743;28;20055;-78
2023/04/15 03:21:54;;;;;;;18.73;7.57;;;;;;;;;;5036419;28;20033;-78
2023/04/15 03:24:20;;;;;;;18.13;7.95;;;;;;;;;;5053191;28;20037;-78
2023/04/15 03:26:46;;;;;;;14.88;8.23;;;;;;;;;;5053722;28;20041;-78
2023/04/15 03:29:12;;;;;;;17.33;7.82;;;;;;;;;;5054480;28;20041;-78
2023/04/15 03:31:38;;;;;;;14.00;8.18;;;;;;;;;;5052769;28;20118;-78
2023/04/15 03:34:04;;;;;;;15.50;8.13;;;;;;;;;;5054482;28;20068;-78
2023/04/15 03:36:31;;;;;;;16.63;8.43;;;;;;;;;;5065337;28;20085;-79
2023/04/15 03:38:58;;;;;;;12.85;7.53;;;;;;;;;;5074032;28;20097;-78
2023/04/15 03:41:24;;;;;;;15.93;8.40;;;;;;;;;;5072854;28;20044;-78
2023/04/15 03:43:53;;;;;;;16.70;8.80;;;;;;;;;;5071790;28;20822;-78
2023/04/15 03:46:19;;;;;;;21.90;9.18;;;;;;;;;;5074100;28;20048;-78
2023/04/15 03:48:45;;;;;;;17.65;8.18;;;;;;;;;;5072459;28;20102;-78
2023/04/15 03:51:11;;;;;;;16.92;8.45;;;;;;;;;;5074103;28;20043;-78
2023/04/15 03:53:37;;;;;;;19.70;9.35;;;;;;;;;;5072504;28;20496;-78
2023/04/15 03:56:03;;;;;;;16.90;8.65;;;;;;;;;;5073529;28;20115;-78
2023/04/15 03:58:29;;;;;;;19.73;9.15;;;;;;;;;;5061474;28;20045;-78
2023/04/15 04:00:55;;;;;;;14.80;8.55;;;;;;;;;;5051407;28;20047;-78
2023/04/15 04:03:21;;;;;;;17.50;9.23;;;;;;;;;;5068331;28;20037;-78
2023/04/15 04:05:48;;;;;;;16.73;9.02;;;;;;;;;;5050949;28;20040;-78
2023/04/15 04:08:15;;;;;;;15.07;8.80;;;;;;;;;;5053408;28;20111;-78
2023/04/15 04:10:41;;;;;;;18.90;9.77;;;;;;;;;;5051608;28;20115;-78
2023/04/15 04:13:07;;;;;;;16.90;10.25;;;;;;;;;;5052172;28;20040;-78
2023/04/15 04:15:33;;;;;;;20.25;9.68;;;;;;;;;;5053565;28;20378;-78
2023/04/15 04:17:59;;;;;;;17.10;9.02;;;;;;;;;;5051496;28;20029;-78
2023/04/15 04:20:25;;;;;;;20.10;11.07;;;;;;;;;;5052298;28;20043;-78
2023/04/15 04:22:51;;;;;;;21.00;10.00;;;;;;;;;;5051617;28;20045;-78
2023/04/15 04:25:17;;;;;;;16.52;9.55;;;;;;;;;;5053320;28;20037;-78
2023/04/15 04:27:44;;;;;;;18.95;8.98;;;;;;;;;;5051344;28;20041;-78
2023/04/15 04:30:10;;;;;;;18.85;10.40;;;;;;;;;;5053217;28;20044;-78
2023/04/15 04:32:37;;;;;;;17.88;10.55;;;;;;;;;;5053059;28;20095;-78
2023/04/15 04:35:03;;;;;;;20.27;10.82;;;;;;;;;;5053375;28;20037;-78
2023/04/15 04:37:29;;;;;;;20.15;9.55;;;;;;;;;;5072968;28;20047;-78
2023/04/15 04:39:56;;;;;;;21.38;10.10;;;;;;;;;;5072714;28;20071;-78
2023/04/15 04:42:22;;;;;;;20.77;11.45;;;;;;;;;;5071357;28;20045;-78
2023/04/15 04:44:48;;;;;;;20.73;11.63;;;;;;;;;;5071364;28;20044;-78
2023/04/15 04:47:14;;;;;;;22.45;12.07;;;;;;;;;;5072795;28;20094;-78
2023/04/15 04:49:40;;;;;;;21.98;11.32;;;;;;;;;;5063596;28;20044;-78
2023/04/15 04:52:06;;;;;;;23.80;12.05;;;;;;;;;;5051361;28;20055;-78
2023/04/15 04:54:33;;;;;;;21.60;10.98;;;;;;;;;;5052233;28;20519;-78
2023/04/15 04:56:59;;;;;;;19.38;10.98;;;;;;;;;;5050651;28;20044;-78
2023/04/15 04:59:25;;;;;;;22.27;11.25;;;;;;;;;;5034804;28;20049;-78
2023/04/15 05:01:52;;;;;;;23.38;11.80;;;;;;;;;;5047054;28;20079;-78
2023/04/15 05:04:18;;;;;;;18.63;11.07;;;;;;;;;;5052755;28;20041;-78
2023/04/15 05:06:44;;;;;;;21.42;11.18;;;;;;;;;;5050807;28;20048;-78
2023/04/15 05:09:10;;;;;;;18.98;10.70;;;;;;;;;;5051072;28;20076;-78
2023/04/15 05:11:36;;;;;;;21.77;11.40;;;;;;;;;;5052251;28;20037;-78
2023/04/15 05:14:02;;;;;;;19.63;10.85;;;;;;;;;;5050843;28;20045;-78
2023/04/15 05:16:28;;;;;;;20.48;10.68;;;;;;;;;;5052362;28;20091;-78
2023/04/15 05:18:54;;;;;;;18.85;10.60;;;;;;;;;;5034017;28;20131;-79
2023/04/15 05:21:20;;;;;;;17.27;9.93;;;;;;;;;;5052335;28;20045;-78
2023/04/15 05:23:47;;;;;;;21.02;12.18;;;;;;;;;;5050623;28;20037;-79
2023/04/15 05:26:13;;;;;;;16.45;10.20;;;;;;;;;;5051052;28;20079;-79
2023/04/15 05:28:39;;;;;;;17.98;10.10;;;;;;;;;;5050800;28;20037;-79
2023/04/15 05:31:06;;;;;;;18.15;9.77;;;;;;;;;;5051955;28;20530;-79
2023/04/15 05:33:32;;;;;;;15.02;9.30;;;;;;;;;;5050697;28;20044;-79
2023/04/15 05:35:58;;;;;;;15.15;9.35;;;;;;;;;;5058520;28;20036;-79
2023/04/15 05:38:24;;;;;;;15.27;9.45;;;;;;;;;;5070625;28;20529;-79
2023/04/15 05:40:50;;;;;;;16.83;9.13;;;;;;;;;;5071816;28;20037;-79
2023/04/15 05:43:16;;;;;;;13.88;8.73;;;;;;;;;;5071945;28;20079;-79
2023/04/15 05:45:42;;;;;;;14.35;9.35;;;;;;;;;;5070817;28;20094;-79
2023/04/15 05:48:08;;;;;;;12.95;8.63;;;;;;;;;;5054994;28;20123;-79
2023/04/15 05:50:35;;;;;;;16.27;9.55;;;;;;;;;;5050785;28;20110;-79
2023/04/15 05:53:01;;;;;;;15.98;9.43;;;;;;;;;;5051548;28;20112;-79
2023/04/15 05:55:27;;;;;;;12.35;8.52;;;;;;;;;;5050816;28;20133;-79
2023/04/15 05:57:53;;;;;;;14.25;9.45;;;;;;;;;;5051173;28;20041;-80
2023/04/15 06:00:20;;;;;;;16.45;9.00;;;;;;;;;;5050683;28;20123;-79
2023/04/15 06:02:46;;;;;;;12.68;8.50;;;;;;;;;;5045712;28;20049;-80
2023/04/15 06:05:13;;;;;;;15.32;9.45;;;;;;;;;;5050811;28;20043;-79
2023/04/15 06:07:39;;;;;;;15.52;9.35;;;;;;;;;;5054660;28;20087;-79
2023/04/15 06:10:06;;;;;;;15.18;9.55;;;;;;;;;;5053976;28;20045;-80
2023/04/15 06:12:32;;;;;;;14.00;9.10;;;;;;;;;;5054844;28;20049;-80
2023/04/15 06:14:58;;;;;;;12.75;8.50;;;;;;;;;;5055224;28;20401;-80
2023/04/15 06:17:24;;;;;;;15.48;10.13;;;;;;;;;;5055768;28;20080;-80
2023/04/15 06:19:54;;;;;;;13.95;9.02;;;;;;;;;;5054833;28;20052;-80
2023/04/15 06:22:21;;;;;;;12.93;8.82;;;;;;;;;;5037748;28;20036;-80
2023/04/15 06:24:49;;;;;;;15.40;9.48;;;;;;;;;;5054166;28;20041;-80
2023/04/15 06:27:15;;;;;;;13.75;9.15;;;;;;;;;;5055436;28;20048;-80
2023/04/15 06:29:41;;;;;;;12.30;8.20;;;;;;;;;;5055302;28;20107;-81
2023/04/15 06:32:08;;;;;;;15.43;9.73;;;;;;;;;;5053637;28;20069;-80
2023/04/15 06:34:34;;;;;;;12.82;8.18;;;;;;;;;;5053795;28;20098;-80
2023/04/15 06:37:00;;;;;;;14.32;8.20;;;;;;;;;;5055019;28;20037;-80
2023/04/15 06:39:26;;;;;;;15.02;9.25;;;;;;;;;;5053785;28;20124;-80
2023/04/15 06:41:52;;;;;;;11.88;8.13;;;;;;;;;;5053343;28;20033;-80
2023/04/15 06:44:18;;;;;;;13.32;8.07;;;;;;;;;;5055028;28;20047;-80
2023/04/15 06:46:44;;;;;;;11.50;7.85;;;;;;;;;;5053967;28;20044;-80
2023/04/15 06:49:11;;;;;;;12.30;8.15;;;;;;;;;;5054383;28;20037;-80
2023/04/15 06:51:37;;;;;;;12.90;8.00;;;;;;;;;;5053968;28;20048;-80
2023/04/15 06:54:05;;;;;;;11.98;7.95;;;;;;;;;;5054376;28;20541;-80
2023/04/15 06:56:34;;;;;;;13.13;7.82;;;;;;;;;;5055156;28;20100;-80
2023/04/15 06:59:00;;;;;;;11.43;7.57;;;;;;;;;;5054065;28;20471;-80
2023/04/15 07:01:27;;;;;;;11.98;7.75;;;;;;;;;;5053390;28;20124;-80
2023/04/15 07:03:53;;;;;;;10.35;7.32;;;;;;;;;;5053352;28;20045;-80
2023/04/15 07:06:20;;;;;;;12.07;7.78;;;;;;;;;;5045688;28;20106;-80
2023/04/15 07:08:46;;;;;;;11.57;8.23;;;;;;;;;;5047066;28;20056;-80
2023/04/15 07:11:13;;;;;;;11.90;7.63;;;;;;;;;;5054270;28;20056;-80
2023/04/15 07:13:39;;;;;;;10.32;7.57;;;;;;;;;;5053421;28;20141;-80
2023/04/15 07:16:05;;;;;;;11.18;8.02;;;;;;;;;;5054002;28;20139;-80
2023/04/15 07:18:31;;;;;;;13.00;7.72;;;;;;;;;;5052069;28;20126;-80
2023/04/15 07:20:57;;;;;;;13.30;8.50;;;;;;;;;;5069939;28;20044;-80
2023/04/15 07:23:23;;;;;;;13.45;7.85;;;;;;;;;;5054916;28;20120;-80
2023/04/15 07:25:50;;;;;;;11.77;8.70;;;;;;;;;;5054569;28;20048;-80
2023/04/15 07:28:17;;;;;;;12.35;7.85;;;;;;;;;;5054832;28;20045;-80
2023/04/15 07:30:43;;;;;;;14.50;8.50;;;;;;;;;;5054799;28;20090;-81
2023/04/15 07:33:09;;;;;;;13.15;8.18;;;;;;;;;;5054176;28;20044;-80
2023/04/15 07:35:35;;;;;;;11.50;7.93;;;;;;;;;;5059427;28;20566;-80
2023/04/15 07:38:01;;;;;;;10.63;7.28;;;;;;;;;;5060225;28;20043;-80
2023/04/15 07:40:27;;;;;;;12.65;7.97;;;;;;;;;;5054344;28;20040;-80
2023/04/15 07:42:54;;;;;;;10.90;7.25;;;;;;;;;;5053189;28;20056;-81
2023/04/15 07:45:20;;;;;;;10.23;7.43;;;;;;;;;;5053726;28;20493;-80
2023/04/15 07:47:46;;;;;;;9.50;6.72;;;;;;;;;;5054218;28;20033;-81
2023/04/15 07:50:13;;;;;;;11.52;6.90;;;;;;;;;;5053741;28;20119;-80
2023/04/15 07:52:39;;;;;;;11.43;7.50;;;;;;;;;;5052860;28;20087;-80
2023/04/15 07:55:08;;;;;;;11.80;6.80;;;;;;;;;;5053435;28;20049;-81
2023/04/15 07:57:35;;;;;;;10.30;6.50;;;;;;;;;;5052989;28;20052;-80
2023/04/15 08:00:02;;;;;;;10.40;6.63;;;;;;;;;;5051913;28;20075;-81
2023/04/15 08:02:29;;;;;;;9.65;6.50;;;;;;;;;;5045142;28;20041;-81
2023/04/15 08:04:55;;;;;;;11.07;6.35;;;;;;;;;;5053703;28;20052;-81
2023/04/15 08:07:21;;;;;;;7.50;5.45;;;;;;;;;;5052151;28;20047;-82
2023/04/15 08:09:47;;;;;;;9.30;5.70;;;;;;;;;;5068758;28;20040;-81
2023/04/15 08:12:13;;;;;;;8.63;5.50;;;;;;;;;;5008644;28;20053;-81
2023/04/15 08:14:40;;;;;;;7.18;4.93;;;;;;;;;;5050133;28;20127;-81
2023/04/15 08:17:06;;;;;;;6.82;4.93;;;;;;;;;;5052172;28;20409;-81
2023/04/15 08:19:32;;;;;;;6.93;5.20;;;;;;;;;;5035502;28;20047;-81
2023/04/15 08:21:58;;;;;;;7.28;4.82;;;;;;;;;;5053609;28;20543;-81
2023/04/15 08:24:25;;;;;;;7.25;4.80;;;;;;;;;;5051769;28;20058;-81
2023/04/15 08:26:51;;;;;;;7.47;5.28;;;;;;;;;;5053420;28;20036;-81
2023/04/15 08:29:17;;;;;;;7.50;4.82;;;;;;;;;;5068170;28;20048;-81
2023/04/15 08:31:44;;;;;;;7.07;4.43;;;;;;;;;;5052958;28;20485;-81
2023/04/15 08:34:13;;;;;;;8.23;4.97;;;;;;;;;;5051534;28;20115;-81
2023/04/15 08:36:40;;;;;;;6.88;4.70;;;;;;;;;;5057357;28;20040;-81
2023/04/15 08:39:07;;;;;;;6.88;4.45;;;;;;;;;;5051323;28;20052;-82
2023/04/15 08:41:40;;;;;;;7.30;3.80;;;;;;;;;;5068120;28;20072;-81
2023/04/15 08:44:06;;;;;;;7.13;4.10;;;;;;;;;;5051345;28;20170;-81
2023/04/15 08:46:33;;;;;;;5.00;3.58;;;;;;;;;;5051848;28;20037;-80
2023/04/15 08:49:00;;;;;;;6.25;3.80;;;;;;;;;;5052738;28;20051;-81
2023/04/15 08:51:26;;;;;;;5.78;3.42;;;;;;;;;;5051478;28;20402;-81
2023/04/15 08:53:52;;;;;;;5.55;3.50;;;;;;;;;;5051617;28;20433;-80
2023/04/15 08:56:19;;;;;;;5.30;3.17;;;;;;;;;;5052340;28;20076;-80
2023/04/15 08:58:46;;;;;;;4.60;3.20;;;;;;;;;;5052770;28;20490;-80
2023/04/15 09:01:12;;;;;;;7.30;3.17;;;;;;;;;;5044249;28;20368;-81
2023/04/15 09:03:39;;;;;;;4.28;2.97;;;;;;;;;;5044608;28;20045;-81
2023/04/15 09:06:05;;;;;;;5.38;3.00;;;;;;;;;;5051504;28;20049;-82
2023/04/15 09:08:33;;;;;;;5.53;3.40;;;;;;;;;;5067633;28;20049;-82
2023/04/15 09:11:00;;;;;;;6.53;3.33;;;;;;;;;;5052040;28;20102;-81
2023/04/15 09:13:26;;;;;;;6.03;3.78;;;;;;;;;;5051152;28;20075;-82
2023/04/15 09:15:53;;;;;;;6.28;3.78;;;;;;;;;;5034495;28;20044;-82
2023/04/15 09:18:32;;;;;;;7.65;3.70;;;;;;;;;;5051967;28;20072;-82
2023/04/15 09:21:13;;;;;;;7.70;4.40;;;;;;;;;;5052208;28;20033;-82
2023/04/15 09:23:41;;;;;;;7.75;3.90;;;;;;;;;;5051184;28;20041;-82
2023/04/15 09:26:07;;;;;;;6.80;3.30;;;;;;;;;;5034372;28;20037;-82
2023/04/15 09:28:40;;;;;;;6.10;3.45;;;;;;;;;;5050778;28;20390;-82
2023/04/15 09:31:06;;;;;;;6.30;3.42;;;;;;;;;;5052110;28;20040;-82
2023/04/15 09:33:32;;;;;;;6.43;3.42;;;;;;;;;;5051538;28;20451;-81
2023/04/15 09:36:03;;;;;;;5.75;2.60;;;;;;;;;;5050620;28;20048;-81
2023/04/15 09:38:30;;;;;;;6.60;2.75;;;;;;;;;;5050794;28;20052;-82
2023/04/15 09:40:56;;;;;;;5.75;3.13;;;;;;;;;;5051161;28;20029;-82
2023/04/15 09:43:24;;;;;;;5.55;2.97;;;;;;;;;;5051959;28;20049;-82
2023/04/15 09:45:51;;;;;;;5.90;2.95;;;;;;;;;;5051896;28;20119;-81
2023/04/15 09:48:29;;;;;;;6.32;2.88;;;;;;;;;;5051595;28;20488;-82
2023/04/15 09:51:00;;;;;;;6.38;3.00;;;;;;;;;;5050645;28;20450;-82
2023/04/15 09:53:27;;;;;;;4.95;2.85;;;;;;;;;;5051703;28;20057;-81
2023/04/15 09:55:54;;;;;;;6.53;2.53;;;;;;;;;;5052014;28;20056;-82
2023/04/15 09:58:25;;;;;;;5.57;2.40;;;;;;;;;;5033875;28;20044;-82
2023/04/15 10:00:52;;;;;;;5.63;2.58;;;;;;;;;;5049367;28;20045;-82
2023/04/15 10:03:22;;;;;;;5.57;2.65;;;;;;;;;;5051942;28;20072;-81
2023/04/15 10:05:49;;;;;;;5.80;2.60;;;;;;;;;;5052811;28;20456;-82
2023/04/15 10:08:19;;;;;;;5.57;2.80;;;;;;;;;;5051863;28;20532;-81
2023/04/15 10:10:46;;;;;;;4.78;2.50;;;;;;;;;;5050508;28;20082;-82
2023/04/15 10:13:17;;;;;;;4.50;2.40;;;;;;;;;;5050888;28;20432;-82
2023/04/15 10:15:46;;;;;;;6.53;2.38;;;;;;;;;;5050754;28;20490;-82
2023/04/15 10:18:14;;;;;;;4.38;2.40;;;;;;;;;;5050502;28;20081;-82
2023/04/15 10:20:41;;;;;;;4.68;2.30;;;;;;;;;;5051312;28;20029;-82
2023/04/15 10:23:08;;;;;;;4.05;2.47;;;;;;;;;;5051757;28;20037;-81
2023/04/15 10:25:34;;;;;;;4.68;2.20;;;;;;;;;;5051199;28;20037;-81
2023/04/15 10:28:01;;;;;;;5.65;2.08;;;;;;;;;;5051683;28;20067;-81
2023/04/15 10:30:27;;;;;;;4.88;2.50;;;;;;;;;;5049946;28;20044;-82
2023/04/15 10:32:53;;;;;;;3.63;1.73;;;;;;;;;;5051650;28;20413;-82
2023/04/15 10:35:21;;;;;;;3.10;1.60;;;;;;;;;;5053797;28;20102;-82
2023/04/15 10:37:47;;;;;;;3.45;1.48;;;;;;;;;;5071736;28;20098;-81
2023/04/15 10:40:26;;;;;;;5.45;2.00;;;;;;;;;;5070171;28;20048;-81
2023/04/15 10:42:55;;;;;;;3.35;1.52;;;;;;;;;;5071420;28;20041;-81
2023/04/15 10:45:25;;;;;;;4.68;1.75;;;;;;;;;;5071094;28;20071;-81
2023/04/15 10:47:55;;;;;;;3.97;1.50;;;;;;;;;;5070898;28;20047;-82
2023/04/15 10:50:21;;;;;;;3.85;1.17;;;;;;;;;;5053244;28;20044;-81
2023/04/15 10:52:50;;;;;;;7.28;2.03;;;;;;;;;;5073182;28;20051;-81
2023/04/15 10:55:20;;;;;;;3.33;1.20;;;;;;;;;;5075019;28;20041;-82
2023/04/15 10:57:47;;;;;;;5.22;1.30;;;;;;;;;;5056850;28;20066;-82
2023/04/15 11:00:14;;;;;;;3.38;1.33;;;;;;;;;;5073890;28;20041;-81
2023/04/15 11:02:46;;;;;;;3.92;1.48;;;;;;;;;;5073390;28;20045;-82
2023/04/15 11:05:16;;;;;;;5.10;1.40;;;;;;;;;;5073988;28;20051;-81
2023/04/15 11:07:50;;;;;;;2.42;1.20;;;;;;;;;;5074257;28;20051;-81
2023/04/15 11:10:23;;;;;;;4.07;1.50;;;;;;;;;;5064599;28;20044;-82
2023/04/15 11:13:08;;;;;;;5.07;1.83;;;;;;;;;;5070884;28;20032;-81
2023/04/15 11:15:37;;;;;;;3.92;1.30;;;;;;;;;;5073439;28;20567;-81
2023/04/15 11:18:06;;;;;;;3.83;1.30;;;;;;;;;;5074341;28;20512;-82
2023/04/15 11:20:33;;;;;;;3.17;1.33;;;;;;;;;;5073150;28;20523;-81
2023/04/15 11:22:59;;;;;;;3.55;1.23;;;;;;;;;;5074511;28;20481;-81
2023/04/15 11:25:29;;;;;;;3.65;1.27;;;;;;;;;;5073208;28;20102;-81
2023/04/15 11:27:56;;;;;;;2.90;0.98;;;;;;;;;;5073096;28;20045;-81
2023/04/15 11:30:27;;;;;;;3.67;1.10;;;;;;;;;;5065452;28;20044;-81
2023/04/15 11:33:03;;;;;;;2.60;1.10;;;;;;;;;;5068755;28;20042;-81
2023/04/15 11:35:29;;;;;;;4.38;1.48;;;;;;;;;;5060000;28;20036;-80
2023/04/15 11:37:56;;;;;;;2.88;1.20;;;;;;;;;;5055455;28;20123;-81
2023/04/15 11:40:23;;;;;;;3.78;1.30;;;;;;;;;;5036186;28;20056;-81
2023/04/15 11:43:04;;;;;;;3.15;1.30;;;;;;;;;;5053741;28;20048;-81
2023/04/15 11:45:30;;;;;;;5.45;1.40;;;;;;;;;;5052450;28;20044;-81
2023/04/15 11:48:05;;;;;;;3.50;1.40;;;;;;;;;;5052634;28;20045;-81
2023/04/15 11:50:31;;;;;;;4.07;1.33;;;;;;;;;;5053517;28;20048;-81
2023/04/15 11:53:00;;;;;;;4.90;1.40;;;;;;;;;;5035827;28;20044;-81
2023/04/15 11:55:26;;;;;;;4.32;1.40;;;;;;;;;;5052896;28;20045;-80
2023/04/15 11:58:12;;;;;;;3.80;1.25;;;;;;;;;;5053659;28;20047;-81
2023/04/15 12:00:39;;;;;;;4.32;1.48;;;;;;;;;;5051196;28;20409;-81
2023/04/15 12:03:12;;;;;;;4.65;1.45;;;;;;;;;;5042808;28;20124;-81
2023/04/15 12:05:58;;;;;;;5.97;1.95;;;;;;;;;;5035311;28;20029;-81
2023/04/15 12:08:24;;;;;;;3.60;1.50;;;;;;;;;;5048687;28;20060;-82
2023/04/15 12:10:51;;;;;;;4.13;1.60;;;;;;;;;;5052107;28;20036;-82
2023/04/15 12:13:17;;;;;;;3.67;1.50;;;;;;;;;;5052308;28;20044;-81
2023/04/15 12:15:43;;;;;;;4.55;1.80;;;;;;;;;;5052990;28;20048;-82
2023/04/15 12:18:16;;;;;;;5.50;1.70;;;;;;;;;;5052059;28;20048;-82
2023/04/15 12:20:46;;;;;;;3.60;1.52;;;;;;;;;;5053084;28;20103;-81
2023/04/15 12:23:12;;;;;;;6.38;1.83;;;;;;;;;;5038445;28;20064;-81
2023/04/15 12:25:38;;;;;;;6.03;2.00;;;;;;;;;;5052034;28;20084;-82
2023/04/15 12:28:14;;;;;;;5.57;1.65;;;;;;;;;;5052223;28;20523;-82
2023/04/15 12:30:50;;;;;;;5.70;1.67;;;;;;;;;;5053112;28;20107;-81
2023/04/15 12:33:16;;;;;;;7.07;2.10;;;;;;;;;;5071672;28;20094;-81
2023/04/15 12:35:42;;;;;;;5.00;2.08;;;;;;;;;;5058777;28;20032;-82
2023/04/15 12:38:09;;;;;;;9.20;2.95;;;;;;;;;;5072872;28;20041;-82
2023/04/15 12:40:35;;;;;;;8.93;2.72;;;;;;;;;;5065374;28;20045;-82
2023/04/15 12:43:02;;;;;;;8.85;2.22;;;;;;;;;;5051447;28;20040;-81
2023/04/15 12:45:28;;;;;;;6.57;2.17;;;;;;;;;;5052857;28;20094;-82
2023/04/15 12:47:54;;;;;;;6.95;2.10;;;;;;;;;;5052588;28;20489;-82
2023/04/15 12:50:20;;;;;;;4.70;1.52;;;;;;;;;;5051843;28;20044;-82
2023/04/15 12:52:46;;;;;;;3.78;1.80;;;;;;;;;;5052427;28;20077;-81
2023/04/15 12:55:12;;;;;;;5.45;1.50;;;;;;;;;;5051328;28;20110;-81
2023/04/15 12:57:38;;;;;;;3.85;1.50;;;;;;;;;;5051352;28;20402;-81
2023/04/15 13:00:06;;;;;;;5.70;2.20;;;;;;;;;;5052687;28;20041;-81
2023/04/15 13:02:33;;;;;;;8.75;2.15;;;;;;;;;;5041159;28;20072;-81
2023/04/15 13:04:59;;;;;;;4.75;2.17;;;;;;;;;;5051071;28;20087;-81
2023/04/15 13:07:25;;;;;;;7.50;2.22;;;;;;;;;;5052353;28;20106;-81
2023/04/15 13:09:51;;;;;;;7.55;2.03;;;;;;;;;;5051210;28;20057;-81
2023/04/15 13:12:17;;;;;;;5.07;1.80;;;;;;;;;;5034442;28;20044;-81
2023/04/15 13:14:43;;;;;;;6.65;1.90;;;;;;;;;;5050274;28;20040;-81
2023/04/15 13:17:10;;;;;;;10.20;2.17;;;;;;;;;;5067730;28;20052;-82
2023/04/15 13:19:36;;;;;;;9.93;2.10;;;;;;;;;;5068013;28;20482;-82
2023/04/15 13:22:02;;;;;;;8.38;2.25;;;;;;;;;;5051919;28;20045;-81
2023/04/15 13:24:28;;;;;;;5.80;2.05;;;;;;;;;;5052026;28;20120;-81
2023/04/15 13:26:58;;;;;;;5.80;1.63;;;;;;;;;;5051020;28;20490;-82
2023/04/15 13:29:24;;;;;;;5.65;2.33;;;;;;;;;;5052238;28;20041;-82
2023/04/15 13:31:50;;;;;;;8.07;1.85;;;;;;;;;;5050728;28;20119;-82
2023/04/15 13:34:16;;;;;;;8.57;2.60;;;;;;;;;;5034439;28;20041;-82
2023/04/15 13:36:42;;;;;;;5.85;1.42;;;;;;;;;;5065979;28;20041;-81
2023/04/15 13:39:08;;;;;;;13.20;2.47;;;;;;;;;;5071992;28;20075;-81
2023/04/15 13:41:34;;;;;;;9.75;2.40;;;;;;;;;;5070964;28;20040;-81
2023/04/15 13:44:00;;;;;;;6.28;1.90;;;;;;;;;;5070320;28;20028;-81
2023/04/15 13:46:26;;;;;;;6.50;1.70;;;;;;;;;;5071403;28;20048;-81
2023/04/15 13:48:52;;;;;;;7.57;1.90;;;;;;;;;;5071902;28;20405;-82
2023/04/15 13:51:19;;;;;;;7.53;1.90;;;;;;;;;;5072271;28;20048;-80
2023/04/15 13:53:45;;;;;;;7.35;1.80;;;;;;;;;;5070179;28;20060;-82
2023/04/15 13:56:11;;;;;;;9.23;1.58;;;;;;;;;;5071360;28;20044;-82
2023/04/15 13:58:37;;;;;;;10.25;1.35;;;;;;;;;;5072051;28;20040;-81
2023/04/15 14:01:04;;;;;;;12.73;1.73;;;;;;;;;;5070260;28;20174;-81
2023/04/15 17:15:55;;;;;;;7.53;2.35;;;;;;;;;;5042546;28;20057;-81
2023/04/15 17:18:21;;;;;;;12.10;2.25;;;;;;;;;;5072617;28;20052;-81
2023/04/15 17:20:47;;;;;;;12.68;2.63;;;;;;;;;;5072171;28;20047;-81
2023/04/15 17:23:13;;;;;;;9.73;2.40;;;;;;;;;;5066248;28;20106;-81
2023/04/15 17:25:39;;;;;;;10.98;2.47;;;;;;;;;;5050796;28;20041;-81
2023/04/15 17:28:05;;;;;;;8.65;2.40;;;;;;;;;;5051039;28;20045;-81
2023/04/15 17:30:32;;;;;;;9.95;2.70;;;;;;;;;;5052190;28;20063;-80
2023/04/15 17:32:58;;;;;;;12.65;2.97;;;;;;;;;;5050896;28;20106;-80
2023/04/15 17:35:25;;;;;;;12.77;2.90;;;;;;;;;;5055500;28;20067;-81
2023/04/15 17:37:51;;;;;;;13.95;3.42;;;;;;;;;;5071003;28;20056;-80
2023/04/15 17:40:17;;;;;;;13.00;2.88;;;;;;;;;;5072109;28;20464;-80
2023/04/15 17:42:43;;;;;;;12.23;2.53;;;;;;;;;;5070729;28;20045;-80
2023/04/15 17:45:09;;;;;;;10.20;2.80;;;;;;;;;;5071202;28;20481;-81
2023/04/15 17:47:35;;;;;;;16.77;3.42;;;;;;;;;;5070420;28;20037;-81